Time;durP1;ratioP1;P1;durP2;ratioP2;P2;SDS_P1;SDS_P2;PMS_P1;PMS_P2;Temp;Humidity;BMP_temperature;BMP_pressure;BME280_temperature;BME280_humidity;BME280_pressure;Samples;Min_cycle;Max_cycle;Signal;HPM_P1;HPM_P2
2022/06/02 00:02:28;;;;;;;26.27;16.15;;;8.00;99.90;;;;;;5002600;28;20057;-88
2022/06/02 00:04:53;;;;;;;26.83;16.10;;;8.00;99.90;;;;;;5013018;28;20037;-88
2022/06/02 00:07:30;;;;;;;29.08;17.70;;;7.90;99.90;;;;;;5012743;28;20497;-88
2022/06/02 00:10:05;;;;;;;31.75;18.17;;;8.20;99.90;;;;;;4996492;28;20092;-88
2022/06/02 00:12:48;;;;;;;34.25;20.00;;;7.90;99.90;;;;;;5012519;28;20058;-88
2022/06/02 00:15:20;;;;;;;32.08;18.00;;;7.90;99.90;;;;;;5012822;28;20050;-88
2022/06/02 00:18:00;;;;;;;27.75;16.67;;;7.90;99.90;;;;;;5012617;28;20034;-89
2022/06/02 00:20:51;;;;;;;26.35;15.52;;;7.80;99.90;;;;;;5012766;28;20465;-89
2022/06/02 00:23:24;;;;;;;25.70;16.20;;;7.80;99.90;;;;;;5012765;28;20041;-88
2022/06/02 00:26:08;;;;;;;24.45;15.68;;;8.10;99.90;;;;;;5013019;28;20137;-89
2022/06/02 00:28:47;;;;;;;22.50;14.63;;;7.70;99.90;;;;;;5012690;28;20038;-88
2022/06/02 00:31:27;;;;;;;27.85;16.77;;;7.70;99.90;;;;;;4998454;28;20042;-88
2022/06/02 00:33:53;;;;;;;25.05;15.73;;;7.60;99.90;;;;;;5016728;28;20117;-88
2022/06/02 00:36:31;;;;;;;25.20;15.40;;;7.70;99.90;;;;;;5000336;28;20053;-88
2022/06/02 00:38:59;;;;;;;26.55;16.67;;;8.10;99.90;;;;;;5016462;28;20049;-88
2022/06/02 00:41:49;;;;;;;24.23;15.55;;;7.60;99.90;;;;;;5016236;28;20129;-88
2022/06/02 00:44:49;;;;;;;24.02;15.27;;;7.60;99.90;;;;;;4999886;28;20081;-88
2022/06/02 00:48:00;;;;;;;23.92;15.05;;;7.50;99.90;;;;;;4999889;28;20079;-88
2022/06/02 00:50:34;;;;;;;24.73;15.10;;;7.50;99.90;;;;;;4960311;28;20474;-88
2022/06/02 00:53:38;;;;;;;25.98;15.55;;;7.60;99.90;;;;;;4960974;28;20441;-88
2022/06/02 00:59:34;;;;;;;24.85;15.60;;;7.50;99.90;;;;;;4960020;28;20050;-88
2022/06/02 01:02:01;;;;;;;26.48;16.00;;;7.40;99.90;;;;;;4943942;28;20526;-88
2022/06/02 01:04:27;;;;;;;27.08;16.30;;;7.40;99.90;;;;;;4959950;28;20050;-88
2022/06/02 01:07:04;;;;;;;26.02;15.73;;;7.40;99.90;;;;;;4943939;28;20050;-89
2022/06/02 01:09:41;;;;;;;25.25;15.00;;;7.40;99.90;;;;;;4943964;28;20145;-88
2022/06/02 01:12:31;;;;;;;25.90;16.45;;;7.30;99.90;;;;;;4943685;28;20066;-88
2022/06/02 01:15:16;;;;;;;26.98;15.60;;;7.30;99.90;;;;;;4959752;28;20058;-88
2022/06/02 01:18:06;;;;;;;24.88;16.02;;;7.30;99.90;;;;;;4959787;28;20047;-88
2022/06/02 01:20:48;;;;;;;27.40;15.75;;;7.30;99.90;;;;;;4944166;28;20058;-88
2022/06/02 01:23:51;;;;;;;23.35;14.65;;;7.30;99.90;;;;;;4943821;28;20047;-88
2022/06/02 01:26:42;;;;;;;24.90;16.02;;;7.30;99.90;;;;;;4947325;28;20082;-89
2022/06/02 01:29:46;;;;;;;26.40;16.17;;;7.30;99.90;;;;;;5015243;28;20037;-88
2022/06/02 01:32:15;;;;;;;25.50;15.43;;;7.30;99.90;;;;;;4999348;28;20046;-89
2022/06/02 01:34:46;;;;;;;25.75;15.55;;;7.20;99.90;;;;;;5015624;28;20033;-88
2022/06/02 01:37:31;;;;;;;23.63;15.15;;;7.20;99.90;;;;;;4999301;28;20393;-88
2022/06/02 01:40:06;;;;;;;25.77;15.43;;;7.10;99.90;;;;;;4999191;28;20046;-88
2022/06/02 01:42:44;;;;;;;23.88;15.35;;;7.40;99.90;;;;;;5014043;28;20096;-88
2022/06/02 01:45:37;;;;;;;26.10;15.63;;;7.10;99.90;;;;;;5015374;28;20046;-88
2022/06/02 01:48:07;;;;;;;25.55;15.30;;;7.00;99.90;;;;;;4998786;28;20108;-88
2022/06/02 01:50:58;;;;;;;23.33;15.02;;;7.00;99.90;;;;;;4998834;28;20077;-88
2022/06/02 01:53:33;;;;;;;24.55;15.30;;;7.00;99.90;;;;;;5015149;28;20045;-88
2022/06/02 01:56:13;;;;;;;25.23;15.48;;;7.00;99.90;;;;;;4998934;28;20041;-88
2022/06/02 01:58:48;;;;;;;27.98;16.75;;;7.00;99.90;;;;;;5014819;28;20050;-88
2022/06/02 02:01:41;;;;;;;33.42;18.23;;;7.00;99.90;;;;;;4998909;28;20053;-88
2022/06/02 02:04:30;;;;;;;26.95;16.90;;;7.00;99.90;;;;;;5014946;28;20042;-88
2022/06/02 02:07:02;;;;;;;26.80;15.98;;;7.00;99.90;;;;;;5006610;28;20093;-88
2022/06/02 02:09:57;;;;;;;27.38;15.45;;;6.90;99.90;;;;;;4998583;28;20073;-88
2022/06/02 02:13:23;;;;;;;20.15;12.80;;;6.90;99.90;;;;;;4998166;28;20080;-88
2022/06/02 02:16:11;;;;;;;20.65;12.15;;;6.90;99.90;;;;;;4958665;28;20043;-88
2022/06/02 02:18:47;;;;;;;20.40;12.43;;;6.80;99.90;;;;;;4942653;28;20042;-88
2022/06/02 02:21:18;;;;;;;21.08;13.63;;;6.80;99.90;;;;;;4942432;28;20065;-88
2022/06/02 02:23:49;;;;;;;19.95;13.18;;;6.80;99.90;;;;;;4958788;28;20482;-88
2022/06/02 02:26:39;;;;;;;19.13;12.38;;;7.00;99.90;;;;;;4958585;28;20054;-88
2022/06/02 02:29:26;;;;;;;20.83;13.00;;;6.80;99.90;;;;;;4958247;28;20054;-88
2022/06/02 02:32:11;;;;;;;21.27;13.63;;;6.70;99.90;;;;;;4958875;28;20042;-88
2022/06/02 02:34:51;;;;;;;21.40;13.90;;;6.70;99.90;;;;;;4942393;28;20490;-88
2022/06/02 02:37:37;;;;;;;21.85;14.07;;;6.70;99.90;;;;;;4942582;28;20050;-88
2022/06/02 02:40:24;;;;;;;23.55;14.30;;;6.70;99.90;;;;;;4942363;28;20047;-88
2022/06/02 02:42:59;;;;;;;22.15;14.90;;;6.80;99.90;;;;;;4958052;28;20106;-88
2022/06/02 02:45:25;;;;;;;22.42;14.57;;;6.80;99.90;;;;;;4959404;28;20042;-88
2022/06/02 02:48:00;;;;;;;25.65;15.30;;;6.80;99.90;;;;;;5013996;28;20551;-88
2022/06/02 02:50:51;;;;;;;21.17;13.57;;;6.70;99.90;;;;;;5014413;28;20435;-88
2022/06/02 02:53:21;;;;;;;21.80;13.13;;;6.80;99.90;;;;;;5014007;28;20050;-88
2022/06/02 02:55:47;;;;;;;21.95;13.57;;;6.70;99.90;;;;;;5013692;28;20099;-88
2022/06/02 02:58:27;;;;;;;23.15;14.25;;;6.60;99.90;;;;;;4998047;28;20053;-88
2022/06/02 03:01:14;;;;;;;21.33;13.52;;;6.70;99.90;;;;;;5013940;28;20045;-88
2022/06/02 03:04:13;;;;;;;21.27;14.02;;;6.60;99.90;;;;;;5013991;28;20453;-88
2022/06/02 03:06:42;;;;;;;21.02;13.25;;;6.60;99.90;;;;;;4997158;28;20092;-88
2022/06/02 03:09:18;;;;;;;23.35;14.25;;;6.60;99.90;;;;;;5014015;28;20046;-88
2022/06/02 03:11:57;;;;;;;21.48;13.98;;;6.60;99.90;;;;;;4997172;28;20065;-88
2022/06/02 03:14:40;;;;;;;25.48;15.55;;;6.90;99.90;;;;;;5013480;28;20053;-88
2022/06/02 03:17:22;;;;;;;25.88;15.25;;;6.60;99.90;;;;;;4997487;28;20045;-88
2022/06/02 03:20:22;;;;;;;24.92;14.85;;;6.50;99.90;;;;;;4997203;28;20104;-88
2022/06/02 03:23:07;;;;;;;21.77;13.88;;;6.50;99.90;;;;;;4997171;28;20042;-88
2022/06/02 03:25:45;;;;;;;23.40;14.90;;;6.50;99.90;;;;;;4997448;28;20049;-88
2022/06/02 03:28:42;;;;;;;24.02;15.30;;;6.60;99.90;;;;;;5013303;28;20045;-88
2022/06/02 03:31:33;;;;;;;25.00;14.80;;;6.60;99.90;;;;;;5013276;28;20049;-88
2022/06/02 03:34:29;;;;;;;19.42;13.02;;;6.60;99.90;;;;;;5013615;28;20493;-88
2022/06/02 03:37:17;;;;;;;21.98;13.82;;;6.60;99.90;;;;;;5013430;28;20050;-88
2022/06/02 03:40:14;;;;;;;21.80;12.98;;;6.60;99.90;;;;;;5015058;28;20362;-88
2022/06/02 03:42:58;;;;;;;21.40;12.95;;;6.50;99.90;;;;;;5016446;28;20060;-88
2022/06/02 03:45:39;;;;;;;19.55;12.55;;;6.60;99.90;;;;;;4999479;28;20584;-88
2022/06/02 03:48:10;;;;;;;19.40;12.23;;;6.50;99.90;;;;;;4997103;28;20183;-88
2022/06/02 03:51:00;;;;;;;20.63;12.65;;;6.50;99.90;;;;;;5013025;28;20046;-88
2022/06/02 03:53:52;;;;;;;22.95;13.40;;;6.90;99.90;;;;;;5013316;28;20123;-88
2022/06/02 03:56:46;;;;;;;21.02;12.98;;;6.50;99.90;;;;;;5012981;28;20092;-88
2022/06/02 03:59:41;;;;;;;22.85;13.65;;;6.50;99.90;;;;;;5012845;28;20053;-88
2022/06/02 04:02:11;;;;;;;19.77;13.15;;;6.50;99.90;;;;;;4996692;28;20057;-88
2022/06/02 04:05:04;;;;;;;22.35;12.68;;;6.50;99.90;;;;;;5012282;28;20042;-88
2022/06/02 04:07:39;;;;;;;22.38;12.82;;;6.60;99.90;;;;;;4996448;28;20509;-88
2022/06/02 04:10:32;;;;;;;20.30;12.98;;;6.60;99.90;;;;;;5012807;28;20493;-88
2022/06/02 04:13:39;;;;;;;20.15;12.65;;;6.70;99.90;;;;;;5012436;28;20486;-88
2022/06/02 04:16:24;;;;;;;19.73;12.73;;;6.70;99.90;;;;;;5012767;28;20180;-88
2022/06/02 04:22:13;;;;;;;15.48;10.32;;;6.70;99.90;;;;;;5012588;28;20049;-88
2022/06/02 04:24:57;;;;;;;19.20;11.63;;;6.80;99.90;;;;;;4996417;28;20077;-88
2022/06/02 04:27:41;;;;;;;18.23;11.35;;;6.90;99.90;;;;;;5012756;28;20072;-88
2022/06/02 04:30:23;;;;;;;16.48;10.77;;;6.90;99.90;;;;;;4996333;28;20050;-88
2022/06/02 04:33:12;;;;;;;14.55;9.43;;;7.00;99.90;;;;;;5012652;28;20115;-88
2022/06/02 04:36:03;;;;;;;12.40;8.52;;;7.10;99.90;;;;;;5012527;28;20050;-88
2022/06/02 04:38:35;;;;;;;10.68;7.53;;;7.10;99.90;;;;;;4956642;28;20066;-88
2022/06/02 04:41:26;;;;;;;10.48;7.70;;;7.10;99.90;;;;;;4940424;28;20055;-88
2022/06/02 04:44:17;;;;;;;13.57;9.25;;;7.20;99.90;;;;;;4956334;28;20066;-88
2022/06/02 04:47:00;;;;;;;14.20;9.27;;;7.30;99.90;;;;;;4956267;28;20047;-88
2022/06/02 04:49:40;;;;;;;15.90;10.30;;;7.30;99.90;;;;;;4940428;28;20055;-88
2022/06/02 04:52:26;;;;;;;15.40;10.65;;;7.40;99.90;;;;;;4956568;28;20050;-88
2022/06/02 04:55:00;;;;;;;17.38;11.13;;;7.50;99.90;;;;;;4956483;28;20043;-88
2022/06/02 04:57:45;;;;;;;18.98;11.27;;;7.60;99.90;;;;;;4956346;28;20578;-88
2022/06/02 05:00:26;;;;;;;17.23;11.18;;;7.60;99.90;;;;;;4956285;28;20126;-88
2022/06/02 05:02:56;;;;;;;17.52;11.20;;;7.80;99.90;;;;;;4956550;28;20059;-88
2022/06/02 05:05:43;;;;;;;23.83;14.45;;;7.90;99.90;;;;;;4956290;28;20490;-88
2022/06/02 05:08:29;;;;;;;24.20;13.48;;;7.90;99.90;;;;;;4956157;28;20055;-88
2022/06/02 05:11:59;;;;;;;19.30;11.98;;;8.00;99.90;;;;;;4956045;28;20130;-88
2022/06/02 05:14:52;;;;;;;21.83;13.70;;;8.10;99.90;;;;;;4825751;29;20058;-88
2022/06/02 05:17:45;;;;;;;24.02;14.43;;;8.30;99.90;;;;;;4869860;29;20053;-88
2022/06/02 05:20:35;;;;;;;23.25;14.75;;;8.30;99.90;;;;;;4870903;29;20048;-88
2022/06/02 05:23:01;;;;;;;28.17;16.40;;;8.50;99.90;;;;;;4851612;29;20087;-88
2022/06/02 05:25:54;;;;;;;23.60;15.48;;;8.70;99.90;;;;;;4866027;29;20507;-88
2022/06/02 05:28:47;;;;;;;26.50;16.50;;;8.70;99.90;;;;;;4865781;29;20061;-88
2022/06/02 05:32:01;;;;;;;23.35;14.60;;;8.80;99.90;;;;;;4866073;29;20147;-88
2022/06/02 05:34:32;;;;;;;24.60;14.75;;;9.00;99.90;;;;;;4865814;29;20061;-88
2022/06/02 05:37:04;;;;;;;21.00;13.45;;;9.10;99.90;;;;;;4850232;29;20059;-88
2022/06/02 05:39:46;;;;;;;20.90;13.43;;;9.20;99.90;;;;;;4865281;29;20139;-88
2022/06/02 05:42:35;;;;;;;16.08;10.88;;;9.40;99.90;;;;;;4865149;29;20068;-88
2022/06/02 05:45:16;;;;;;;19.70;12.75;;;9.50;99.90;;;;;;4864786;29;20132;-88
2022/06/02 05:48:18;;;;;;;16.33;10.85;;;9.70;99.90;;;;;;4895996;29;20141;-89
2022/06/02 05:50:59;;;;;;;17.50;11.05;;;9.80;99.90;;;;;;4967572;28;20049;-89
2022/06/02 05:53:51;;;;;;;16.05;11.05;;;10.00;99.90;;;;;;5015236;28;20140;-89
2022/06/02 05:56:35;;;;;;;15.95;9.70;;;10.10;99.90;;;;;;5012177;28;20486;-89
2022/06/02 05:59:34;;;;;;;14.13;9.55;;;10.20;99.90;;;;;;5014913;28;20088;-89
2022/06/02 06:02:08;;;;;;;16.33;10.18;;;10.40;99.90;;;;;;5015075;28;20045;-89
2022/06/02 06:04:43;;;;;;;14.97;9.20;;;10.50;99.90;;;;;;5014995;28;20046;-89
2022/06/02 06:07:14;;;;;;;18.67;10.30;;;10.60;99.90;;;;;;5014908;28;20046;-88
2022/06/02 06:10:16;;;;;;;15.38;9.90;;;10.80;99.90;;;;;;5014832;28;20042;-89
2022/06/02 06:12:53;;;;;;;13.32;8.80;;;10.90;99.90;;;;;;5014479;28;20065;-89
2022/06/02 06:15:38;;;;;;;10.82;7.03;;;11.00;99.90;;;;;;5014988;28;20046;-87
2022/06/02 06:18:04;;;;;;;11.48;7.05;;;11.20;99.90;;;;;;4998480;28;20045;-88
2022/06/02 06:20:49;;;;;;;8.10;5.82;;;11.30;99.90;;;;;;4998401;28;20076;-88
2022/06/02 06:23:45;;;;;;;10.77;6.57;;;11.40;99.90;;;;;;5014510;28;20054;-86
2022/06/02 06:26:21;;;;;;;;;;;11.50;99.90;;;;;;5000193;28;20042;-85
2022/06/02 06:28:59;;;;;;;11.02;5.70;;;11.60;99.90;;;;;;4997405;28;19922;-86
2022/06/02 06:31:24;;;;;;;6.35;4.30;;;11.80;99.90;;;;;;4998487;28;20133;-86
2022/06/02 06:33:53;;;;;;;5.65;3.20;;;11.90;99.90;;;;;;5014330;28;20485;-87
2022/06/02 06:36:27;;;;;;;5.78;3.80;;;12.10;99.90;;;;;;4999179;28;20061;-85
2022/06/02 06:39:08;;;;;;;5.15;3.00;;;12.20;99.90;;;;;;4998197;28;20042;-86
2022/06/02 06:41:44;;;;;;;5.72;2.80;;;12.30;99.90;;;;;;5015528;28;20045;-86
2022/06/02 06:44:25;;;;;;;5.75;3.40;;;12.40;99.90;;;;;;5014196;28;20049;-86
2022/06/02 06:47:19;;;;;;;3.95;2.70;;;12.50;99.90;;;;;;5014079;28;20145;-86
2022/06/02 06:50:09;;;;;;;5.30;2.28;;;12.60;99.90;;;;;;5014135;28;20042;-86
2022/06/02 06:52:56;;;;;;;5.13;2.25;;;12.80;99.90;;;;;;5013930;28;20046;-86
2022/06/02 06:55:57;;;;;;;4.25;2.15;;;13.00;99.90;;;;;;5014339;28;20065;-86
2022/06/02 06:58:51;;;;;;;3.35;2.20;;;13.20;99.90;;;;;;5014080;28;20084;-86
2022/06/02 07:01:48;;;;;;;4.25;2.33;;;13.30;99.90;;;;;;5013911;28;20041;-87
2022/06/02 07:04:43;;;;;;;4.60;2.40;;;13.40;99.90;;;;;;4997731;28;20054;-86
2022/06/02 07:07:15;;;;;;;3.85;2.20;;;13.40;99.90;;;;;;5014166;28;20046;-86
2022/06/02 07:10:00;;;;;;;4.20;1.92;;;13.40;99.90;;;;;;5014239;28;20513;-88
2022/06/02 07:12:54;;;;;;;3.63;2.13;;;13.40;99.90;;;;;;5018501;28;20080;-88
2022/06/02 07:15:47;;;;;;;3.90;1.80;;;13.30;99.90;;;;;;5027904;28;20058;-88
2022/06/02 07:18:42;;;;;;;4.88;1.77;;;13.30;99.90;;;;;;5003678;28;20041;-87
2022/06/02 07:21:33;;;;;;;3.20;1.52;;;13.20;99.90;;;;;;5017729;28;20045;-87
2022/06/02 07:24:17;;;;;;;2.88;1.70;;;13.40;99.90;;;;;;5014402;28;20107;-88
2022/06/02 07:26:58;;;;;;;6.35;2.00;;;13.70;99.90;;;;;;5013625;28;20473;-90
2022/06/02 07:29:47;;;;;;;2.75;1.73;;;13.90;99.90;;;;;;4997164;28;20048;-88
2022/06/02 07:32:25;;;;;;;2.83;1.70;;;14.00;99.90;;;;;;5013635;28;20104;-88
2022/06/02 07:35:13;;;;;;;2.13;1.30;;;14.10;99.90;;;;;;4997314;28;20116;-88
2022/06/02 07:38:06;;;;;;;2.55;1.30;;;14.50;99.90;;;;;;5015148;28;20124;-88
2022/06/02 07:40:47;;;;;;;2.20;1.50;;;14.50;99.90;;;;;;4996553;28;20393;-89
2022/06/02 07:43:40;;;;;;;3.70;1.80;;;14.40;99.90;;;;;;4996861;28;20037;-88
2022/06/02 07:46:24;;;;;;;3.30;1.30;;;14.40;99.90;;;;;;4996876;28;20045;-89
2022/06/02 07:49:23;;;;;;;2.90;1.60;;;14.50;99.90;;;;;;5013349;28;20081;-87
2022/06/02 07:52:05;;;;;;;2.40;1.40;;;14.90;99.90;;;;;;4996823;28;20038;-89
2022/06/02 07:54:54;;;;;;;3.13;1.23;;;15.00;99.90;;;;;;4997526;28;20485;-87
2022/06/02 07:57:47;;;;;;;2.10;1.23;;;14.80;99.90;;;;;;4996369;28;20140;-88
2022/06/02 08:00:32;;;;;;;3.20;1.30;;;14.80;99.90;;;;;;5013517;28;20041;-89
2022/06/02 08:03:31;;;;;;;4.18;1.58;;;14.70;99.90;;;;;;5013263;28;20413;-87
2022/06/02 08:06:26;;;;;;;3.65;1.75;;;14.70;99.90;;;;;;4996522;28;20049;-89
2022/06/02 08:09:23;;;;;;;3.55;1.50;;;15.00;99.90;;;;;;5013403;28;20436;-88
2022/06/02 08:11:51;;;;;;;2.80;1.20;;;15.30;99.90;;;;;;4950929;28;20227;-88
2022/06/02 08:14:36;;;;;;;4.63;1.50;;;15.60;99.90;;;;;;4977514;28;20050;-89
2022/06/02 08:17:20;;;;;;;2.60;1.37;;;15.30;99.90;;;;;;4943503;28;20146;-89
2022/06/02 08:20:07;;;;;;;3.25;1.20;;;15.00;99.90;;;;;;4958129;28;20859;-90
2022/06/02 08:22:51;;;;;;;2.70;1.15;;;15.20;99.90;;;;;;4959687;28;20059;-89
2022/06/02 08:25:24;;;;;;;2.67;1.10;;;15.30;99.90;;;;;;4958199;28;20051;-89
2022/06/02 08:27:55;;;;;;;2.70;1.17;;;15.60;99.90;;;;;;4958917;28;20489;-88
2022/06/02 08:30:44;;;;;;;1.80;1.00;;;15.60;99.90;;;;;;4957067;28;20055;-87
2022/06/02 08:33:31;;;;;;;4.32;1.27;;;15.70;99.90;;;;;;4959157;28;20154;-89
2022/06/02 08:36:05;;;;;;;4.03;1.25;;;15.80;99.90;;;;;;4957097;28;20137;-86
2022/06/02 08:38:33;;;;;;;1.95;0.90;;;16.00;99.90;;;;;;4960758;28;20418;-89
2022/06/02 08:41:30;;;;;;;3.75;1.10;;;16.10;99.90;;;;;;4941433;28;20043;-90
2022/06/02 08:44:17;;;;;;;2.65;1.30;;;16.20;99.90;;;;;;4957334;28;20057;-87
2022/06/02 08:47:16;;;;;;;3.20;1.30;;;16.30;99.90;;;;;;4958700;28;20046;-87
2022/06/02 08:50:10;;;;;;;3.78;1.52;;;16.40;99.90;;;;;;5007474;28;20115;-91
2022/06/02 08:53:17;;;;;;;2.30;1.30;;;16.80;99.90;;;;;;5023338;28;20413;-86
2022/06/02 08:56:20;;;;;;;2.20;1.40;;;17.00;99.90;;;;;;4946803;28;20134;-85
2022/06/02 08:59:32;;;;;;;3.85;1.30;;;16.80;99.90;;;;;;4978352;28;20073;-89
2022/06/02 09:02:35;;;;;;;3.40;1.33;;;16.40;99.90;;;;;;4944348;28;20051;-87
2022/06/02 09:05:37;;;;;;;4.00;1.42;;;16.30;99.90;;;;;;4960006;28;20050;-87
2022/06/02 09:08:12;;;;;;;3.50;1.35;;;16.30;99.90;;;;;;4964149;28;20621;-87
2022/06/02 09:11:11;;;;;;;3.80;1.10;;;16.60;99.90;;;;;;4970020;28;20043;-87
2022/06/02 09:13:45;;;;;;;5.90;1.55;;;16.80;99.90;;;;;;4967677;28;20333;-87
2022/06/02 09:16:21;;;;;;;3.30;1.13;;;17.10;99.90;;;;;;4944346;28;20086;-88
2022/06/02 09:19:13;;;;;;;2.85;1.10;;;17.40;99.90;;;;;;4944311;28;20538;-87
2022/06/02 09:22:10;;;;;;;2.47;1.15;;;17.30;99.90;;;;;;4959752;28;20295;-86
2022/06/02 09:24:38;;;;;;;2.25;1.33;;;17.30;99.90;;;;;;4959324;28;20046;-87
2022/06/02 09:27:42;;;;;;;3.35;1.52;;;17.60;99.90;;;;;;4943710;28;20513;-87
2022/06/02 09:30:29;;;;;;;2.42;1.15;;;17.80;99.90;;;;;;4943779;28;20375;-87
2022/06/02 09:36:50;;;;;;;3.15;1.30;;;17.80;99.90;;;;;;5015649;28;20049;-88
2022/06/02 09:39:45;;;;;;;3.55;1.23;;;17.80;99.90;;;;;;5015773;28;20085;-88
2022/06/02 09:42:34;;;;;;;2.22;1.20;;;17.80;99.90;;;;;;4943381;28;20054;-88
2022/06/02 09:45:28;;;;;;;2.15;1.20;;;17.40;99.90;;;;;;4959357;28;20042;-88
2022/06/02 09:48:05;;;;;;;1.67;1.05;;;17.20;99.90;;;;;;4946722;28;20051;-88
2022/06/02 09:51:04;;;;;;;4.78;1.52;;;17.00;99.90;;;;;;4964777;28;20546;-86
2022/06/02 09:53:40;;;;;;;3.40;1.30;;;16.70;99.90;;;;;;4966467;28;20058;-87
2022/06/02 09:56:24;;;;;;;3.88;1.42;;;16.70;99.90;;;;;;4949180;28;20078;-86
2022/06/02 09:59:01;;;;;;;4.07;1.33;;;16.60;99.90;;;;;;4959670;28;20063;-86
2022/06/02 10:02:11;;;;;;;2.97;1.20;;;16.60;99.90;;;;;;4959981;28;20043;-87
2022/06/02 10:04:57;;;;;;;4.72;1.30;;;16.90;99.90;;;;;;4908752;29;20114;-88
2022/06/02 10:07:34;;;;;;;2.50;1.30;;;17.40;99.90;;;;;;4926934;29;20058;-86
2022/06/02 10:10:31;;;;;;;2.65;1.20;;;16.90;99.90;;;;;;4927213;29;20059;-88
2022/06/02 10:13:31;;;;;;;2.47;1.30;;;16.90;99.90;;;;;;4927136;29;20384;-88
2022/06/02 10:16:35;;;;;;;4.05;1.65;;;16.70;99.90;;;;;;4951228;29;20090;-85
2022/06/02 10:19:41;;;;;;;2.92;1.60;;;16.80;99.90;;;;;;4890391;29;20126;-84
2022/06/02 10:22:41;;;;;;;3.45;1.40;;;16.80;99.90;;;;;;4885116;29;20057;-85
2022/06/02 10:25:47;;;;;;;3.50;1.35;;;16.90;99.90;;;;;;4871061;29;20433;-89
2022/06/02 10:31:43;;;;;;;4.00;1.25;;;16.90;99.90;;;;;;4902732;29;20276;-88
2022/06/02 10:34:31;;;;;;;2.00;1.30;;;16.90;99.90;;;;;;4877538;29;20057;-88
2022/06/02 10:37:11;;;;;;;4.18;1.40;;;16.90;99.90;;;;;;4897762;29;20105;-87
2022/06/02 10:40:11;;;;;;;2.38;1.48;;;16.90;99.90;;;;;;4897094;29;20044;-85
2022/06/02 10:43:14;;;;;;;2.08;1.13;;;16.80;99.90;;;;;;4934683;29;20056;-87
2022/06/02 10:46:12;;;;;;;2.50;1.17;;;16.70;99.90;;;;;;4919659;29;20055;-86
2022/06/02 10:49:03;;;;;;;3.45;1.60;;;16.70;99.90;;;;;;4938958;28;20047;-85
2022/06/02 10:51:47;;;;;;;2.70;1.35;;;16.50;99.90;;;;;;4927505;29;20150;-91
2022/06/02 10:54:40;;;;;;;3.90;1.30;;;16.40;99.90;;;;;;4938609;29;20059;-89
2022/06/02 10:57:06;;;;;;;2.47;1.30;;;16.30;99.90;;;;;;5015411;28;20505;-88
2022/06/02 10:59:59;;;;;;;3.08;1.20;;;16.30;99.90;;;;;;5016633;28;20052;-89
2022/06/02 11:02:46;;;;;;;2.83;1.33;;;16.30;99.90;;;;;;5017646;28;20050;-88
2022/06/02 11:05:40;;;;;;;3.78;1.20;;;16.50;99.90;;;;;;5017913;28;20096;-88
2022/06/02 11:08:14;;;;;;;2.70;1.23;;;16.60;99.90;;;;;;5015485;28;20164;-90
2022/06/02 11:10:55;;;;;;;3.03;1.17;;;16.90;99.90;;;;;;4998815;28;20076;-89
2022/06/02 11:13:49;;;;;;;3.80;1.13;;;17.10;99.90;;;;;;5014524;28;20060;-89
2022/06/02 11:17:03;;;;;;;3.63;1.30;;;17.40;99.90;;;;;;5026143;23;20050;-89
2022/06/02 11:19:53;;;;;;;3.22;1.30;;;18.30;99.90;;;;;;4960848;28;20051;-88
2022/06/02 11:22:55;;;;;;;3.90;1.40;;;19.00;99.90;;;;;;4947991;28;20050;-89
2022/06/02 11:25:54;;;;;;;2.08;1.10;;;19.50;99.90;;;;;;4963455;28;20062;-92
2022/06/02 11:28:47;;;;;;;2.67;1.08;;;19.60;99.90;;;;;;4944463;28;20042;-91
2022/06/02 11:31:22;;;;;;;2.33;1.10;;;19.70;99.90;;;;;;4946614;28;20050;-89
2022/06/02 11:34:18;;;;;;;2.85;1.30;;;20.00;99.90;;;;;;4961769;28;20043;-88
2022/06/02 11:36:50;;;;;;;3.35;1.25;;;20.20;99.90;;;;;;4944461;28;20062;-91
2022/06/02 11:40:03;;;;;;;2.22;1.13;;;20.50;99.90;;;;;;4946462;28;20073;-91
2022/06/02 11:42:46;;;;;;;2.80;1.00;;;20.10;99.90;;;;;;4881610;29;20057;-91
2022/06/02 11:45:42;;;;;;;2.67;1.23;;;19.50;99.90;;;;;;4876449;29;20076;-91
2022/06/02 11:48:26;;;;;;;2.15;1.10;;;18.90;99.90;;;;;;4872038;29;20105;-91
2022/06/02 11:51:18;;;;;;;2.17;1.02;;;18.70;99.90;;;;;;4903634;29;20051;-90
2022/06/02 11:54:17;;;;;;;2.58;1.17;;;18.80;99.90;;;;;;4924603;29;20092;-91
2022/06/02 11:56:54;;;;;;;2.90;1.20;;;18.60;99.90;;;;;;4925835;29;20410;-91
2022/06/02 11:59:54;;;;;;;2.25;1.10;;;18.60;99.90;;;;;;4928487;29;20066;-90
2022/06/02 12:02:57;;;;;;;3.00;1.23;;;18.50;99.90;;;;;;4931008;29;20055;-91
2022/06/02 12:05:51;;;;;;;2.15;1.00;;;18.80;99.90;;;;;;4924495;29;20110;-90
2022/06/02 12:08:23;;;;;;;2.80;1.13;;;19.30;99.90;;;;;;4922887;29;20055;-89
2022/06/02 12:11:09;;;;;;;2.33;0.90;;;19.80;99.90;;;;;;4965249;23;20041;-91
2022/06/02 12:13:53;;;;;;;2.63;1.38;;;20.50;99.90;;;;;;5016027;28;20144;-91
2022/06/02 12:16:30;;;;;;;2.42;1.42;;;20.90;99.90;;;;;;5016188;28;20554;-90
2022/06/02 12:19:20;;;;;;;3.53;1.20;;;20.80;99.90;;;;;;5026729;28;20049;-91
2022/06/02 12:21:46;;;;;;;2.70;1.40;;;21.00;99.90;;;;;;5031910;28;20141;-89
2022/06/02 12:24:29;;;;;;;3.15;1.30;;;21.30;99.90;;;;;;5020433;28;20430;-91
2022/06/02 12:27:19;;;;;;;5.82;1.80;;;21.40;99.90;;;;;;5017817;28;20160;-91
2022/06/02 12:30:22;;;;;;;3.22;1.23;;;21.40;99.90;;;;;;5019893;28;20045;-90
2022/06/02 12:33:14;;;;;;;4.22;1.23;;;21.50;99.90;;;;;;5036110;28;20053;-91
2022/06/02 12:36:17;;;;;;;3.10;1.35;;;21.90;99.90;;;;;;4998184;28;20049;-90
2022/06/02 12:38:58;;;;;;;2.25;1.10;;;21.90;99.90;;;;;;5021047;28;20045;-91
2022/06/02 12:41:43;;;;;;;3.35;1.45;;;22.00;99.90;;;;;;5036500;28;20037;-90
2022/06/02 12:44:51;;;;;;;3.60;1.27;;;22.20;99.90;;;;;;5036485;28;20053;-87
2022/06/02 12:47:22;;;;;;;3.00;1.02;;;22.40;99.90;;;;;;5037102;28;20053;-87
2022/06/02 12:50:23;;;;;;;2.78;0.93;;;22.50;99.90;;;;;;5022432;28;20033;-88
2022/06/02 12:53:12;;;;;;;3.17;1.40;;;22.50;99.90;;;;;;5022657;28;20060;-89
2022/06/02 12:55:45;;;;;;;2.90;1.23;;;22.50;99.90;;;;;;5040199;28;20179;-89
2022/06/02 12:58:42;;;;;;;2.70;1.00;;;22.70;99.90;;;;;;5021995;28;20045;-89
2022/06/02 13:01:37;;;;;;;4.03;1.33;;;22.90;99.90;;;;;;4965062;28;20054;-89
2022/06/02 13:04:21;;;;;;;2.85;1.38;;;23.20;99.90;;;;;;4982244;28;20636;-89
2022/06/02 13:07:14;;;;;;;2.50;1.10;;;22.80;99.90;;;;;;4981524;28;20051;-90
2022/06/02 13:10:06;;;;;;;2.08;1.10;;;22.10;99.90;;;;;;4965867;28;20285;-89
2022/06/02 13:12:53;;;;;;;2.58;0.95;;;21.30;99.90;;;;;;4977771;28;20054;-89
2022/06/02 13:19:25;;;;;;;1.88;1.00;;;20.30;99.90;;;;;;4997845;28;20049;-89
2022/06/02 13:22:28;;;;;;;3.20;1.10;;;19.80;99.90;;;;;;4981785;28;20058;-90
2022/06/02 13:25:41;;;;;;;2.33;1.10;;;19.50;99.90;;;;;;4981567;28;20086;-90
2022/06/02 13:28:31;;;;;;;3.47;1.00;;;19.30;99.90;;;;;;4886662;29;20054;-89
2022/06/02 13:35:13;;;;;;;4.07;1.20;;;19.10;99.90;;;;;;4903603;29;20399;-90
2022/06/02 13:37:57;;;;;;;3.13;1.10;;;18.90;99.90;;;;;;4897153;29;20079;-89
2022/06/02 13:40:27;;;;;;;2.95;1.10;;;18.80;99.90;;;;;;4909880;29;20585;-90
2022/06/02 13:43:19;;;;;;;2.00;1.10;;;18.60;99.90;;;;;;4908729;29;20116;-89
2022/06/02 13:46:17;;;;;;;2.28;1.08;;;18.50;99.90;;;;;;4908372;29;20129;-89
2022/06/02 13:49:01;;;;;;;2.40;1.20;;;18.50;99.90;;;;;;4909006;29;20059;-89
2022/06/02 13:52:08;;;;;;;2.70;1.20;;;18.40;99.90;;;;;;4907650;28;20055;-91
2022/06/02 13:58:01;;;;;;;2.75;1.30;;;18.10;99.90;;;;;;4927303;28;20057;-90
2022/06/02 14:04:41;;;;;;;4.00;1.50;;;17.90;99.90;;;;;;5041878;28;20052;-89
2022/06/02 14:07:32;;;;;;;2.70;1.40;;;17.90;99.90;;;;;;4967967;28;20054;-89
2022/06/02 14:10:18;;;;;;;2.95;1.45;;;17.90;99.90;;;;;;4983140;28;20050;-89
2022/06/02 14:12:56;;;;;;;3.42;1.60;;;18.10;99.90;;;;;;4982348;28;20051;-89
2022/06/02 14:16:01;;;;;;;2.80;1.38;;;18.40;99.90;;;;;;4981347;28;20065;-89
2022/06/02 14:18:44;;;;;;;3.17;1.40;;;18.90;99.90;;;;;;4966004;28;20133;-89
2022/06/02 14:21:28;;;;;;;3.05;1.30;;;20.00;99.90;;;;;;4983049;28;20082;-90
2022/06/02 14:24:36;;;;;;;2.28;1.27;;;20.40;99.90;;;;;;4983672;28;20051;-89
2022/06/02 14:27:39;;;;;;;2.05;1.10;;;21.00;99.90;;;;;;4872762;29;20513;-90
2022/06/02 14:33:59;;;;;;;3.28;1.20;;;21.40;99.90;;;;;;4997152;28;20064;-90
2022/06/02 14:36:43;;;;;;;3.22;1.25;;;20.80;99.90;;;;;;4981697;28;20053;-89
2022/06/02 14:39:30;;;;;;;2.67;1.15;;;20.90;99.90;;;;;;4964646;28;20504;-89
2022/06/02 14:42:14;;;;;;;3.05;1.17;;;20.80;99.90;;;;;;4979654;28;20081;-89
2022/06/02 14:44:46;;;;;;;1.88;1.00;;;20.30;99.90;;;;;;5023868;28;20126;-89
2022/06/02 14:47:12;;;;;;;1.95;1.00;;;20.00;99.90;;;;;;5021423;28;20419;-89
2022/06/02 14:49:52;;;;;;;2.55;1.20;;;19.70;99.90;;;;;;5032850;28;20076;-89
2022/06/02 14:52:40;;;;;;;3.10;1.52;;;19.40;99.90;;;;;;5036591;28;20183;-89
2022/06/02 14:55:12;;;;;;;2.92;1.30;;;19.10;99.90;;;;;;5038496;28;20135;-89